Time;durP1;ratioP1;P1;durP2;ratioP2;P2;SDS_P1;SDS_P2;PMS_P1;PMS_P2;Temp;Humidity;BMP_temperature;BMP_pressure;BME280_temperature;BME280_humidity;BME280_pressure;Samples;Min_cycle;Max_cycle;Signal;HPM_P1;HPM_P2
2023/06/04 00:02:10;;;;;;;1.40;1.30;;;15.50;99.90;;;;;;5043237;28;20215;-60
2023/06/04 00:04:38;;;;;;;2.80;1.30;;;15.50;99.90;;;;;;5042654;28;20204;-60
2023/06/04 00:07:05;;;;;;;2.90;2.10;;;15.40;99.90;;;;;;5040387;28;20222;-59
2023/06/04 00:09:32;;;;;;;2.63;1.57;;;15.50;99.90;;;;;;5040473;28;20461;-60
2023/06/04 00:11:59;;;;;;;4.17;1.30;;;15.40;99.90;;;;;;5040533;28;20203;-60
2023/06/04 00:14:26;;;;;;;2.90;1.40;;;15.40;99.90;;;;;;5040837;28;20261;-60
2023/06/04 00:16:53;;;;;;;3.33;1.37;;;15.30;99.90;;;;;;5041101;28;20231;-60
2023/06/04 00:19:20;;;;;;;2.70;1.50;;;15.40;99.90;;;;;;5044066;28;20214;-59
2023/06/04 00:21:47;;;;;;;3.97;1.50;;;15.40;99.90;;;;;;5039746;28;20217;-59
2023/06/04 00:24:13;;;;;;;3.20;1.57;;;15.20;99.90;;;;;;5039791;28;20569;-60
2023/06/04 00:26:40;;;;;;;5.10;1.87;;;15.20;99.90;;;;;;5040433;28;20218;-60
2023/06/04 00:29:07;;;;;;;5.50;2.23;;;15.20;99.90;;;;;;5042894;28;20249;-60
2023/06/04 00:31:35;;;;;;;1.63;1.30;;;15.30;99.90;;;;;;5041403;28;20198;-60
2023/06/04 00:34:04;;;;;;;1.77;1.50;;;15.30;99.90;;;;;;5049832;28;20340;-60
2023/06/04 00:36:31;;;;;;;3.03;1.60;;;15.30;99.90;;;;;;5060593;28;20609;-60
2023/06/04 00:38:58;;;;;;;3.10;1.80;;;15.20;99.90;;;;;;5061097;28;20206;-60
2023/06/04 00:41:25;;;;;;;3.60;1.90;;;15.10;99.90;;;;;;5060133;28;20682;-60
2023/06/04 00:44:01;;;;;;;2.37;1.70;;;15.00;99.90;;;;;;5059004;28;20200;-59
2023/06/04 00:46:31;;;;;;;2.40;1.60;;;15.00;99.90;;;;;;5059547;28;20208;-60
2023/06/04 00:48:58;;;;;;;3.67;1.80;;;14.90;99.90;;;;;;5060835;28;20358;-60
2023/06/04 00:51:25;;;;;;;3.47;1.80;;;15.00;99.90;;;;;;5058485;28;20645;-60
2023/06/04 00:53:53;;;;;;;3.50;1.97;;;15.10;99.90;;;;;;5059765;28;20268;-60
2023/06/04 00:56:20;;;;;;;2.67;1.57;;;14.80;99.90;;;;;;5057241;28;20217;-59
2023/06/04 00:58:47;;;;;;;2.47;1.80;;;14.60;99.90;;;;;;5055805;28;20201;-60
2023/06/04 01:01:37;;;;;;;3.37;1.83;;;14.60;99.90;;;;;;5057030;28;20314;-60
2023/06/04 01:04:09;;;;;;;3.07;1.60;;;14.60;99.90;;;;;;5059365;28;20205;-59
2023/06/04 01:06:42;;;;;;;2.00;1.60;;;14.50;99.90;;;;;;5055820;28;20234;-59
2023/06/04 01:09:10;;;;;;;6.43;1.60;;;14.50;99.90;;;;;;5060632;28;20213;-60
2023/06/04 01:11:39;;;;;;;4.03;1.50;;;14.50;99.90;;;;;;5075456;28;20214;-60
2023/06/04 01:14:08;;;;;;;1.43;1.23;;;14.60;99.90;;;;;;5059301;28;20233;-59
2023/06/04 01:16:45;;;;;;;3.93;1.93;;;14.70;99.90;;;;;;5060199;28;20297;-59
2023/06/04 01:19:32;;;;;;;3.03;1.60;;;14.70;99.90;;;;;;5062025;28;20197;-60
2023/06/04 01:22:08;;;;;;;4.63;1.80;;;14.60;99.90;;;;;;5059821;28;20230;-60
2023/06/04 01:24:37;;;;;;;1.50;1.30;;;14.50;99.90;;;;;;5059260;28;20203;-59
2023/06/04 01:27:06;;;;;;;2.70;1.60;;;14.50;99.90;;;;;;5059058;28;20210;-60
2023/06/04 01:29:36;;;;;;;3.17;1.60;;;14.60;99.90;;;;;;5056045;28;20643;-59
2023/06/04 01:32:04;;;;;;;2.10;1.33;;;14.40;99.90;;;;;;5059279;28;20634;-60
2023/06/04 01:34:43;;;;;;;2.47;1.50;;;14.50;99.90;;;;;;5078010;28;20267;-60
2023/06/04 01:37:11;;;;;;;4.37;1.43;;;14.40;99.90;;;;;;5083459;28;20305;-59
2023/06/04 01:39:38;;;;;;;4.97;1.23;;;14.50;99.90;;;;;;5081406;28;20197;-60
2023/06/04 01:42:05;;;;;;;3.70;1.60;;;14.40;99.90;;;;;;5084296;28;20675;-60
2023/06/04 01:44:32;;;;;;;1.73;1.47;;;14.40;99.90;;;;;;5085324;28;20204;-60
2023/06/04 01:46:59;;;;;;;2.17;1.67;;;14.20;99.90;;;;;;5085626;28;20213;-59
2023/06/04 01:49:26;;;;;;;2.87;1.50;;;14.10;99.90;;;;;;5076044;28;20206;-60
2023/06/04 01:51:53;;;;;;;2.87;1.70;;;14.10;99.90;;;;;;5085979;28;20207;-63
2023/06/04 01:54:20;;;;;;;3.67;1.40;;;14.10;99.90;;;;;;5084364;28;20198;-59
2023/06/04 01:56:48;;;;;;;3.60;2.00;;;14.10;99.90;;;;;;5082899;28;20743;-59
2023/06/04 01:59:16;;;;;;;1.80;1.43;;;14.10;99.90;;;;;;5085128;28;20620;-59
2023/06/04 02:01:43;;;;;;;2.10;1.30;;;13.90;99.90;;;;;;5071235;28;20257;-60
2023/06/04 02:04:10;;;;;;;2.03;1.40;;;14.00;99.90;;;;;;5089125;28;21127;-60
2023/06/04 02:06:37;;;;;;;3.23;1.57;;;13.90;99.90;;;;;;5086049;28;20203;-60
2023/06/04 02:09:04;;;;;;;3.30;1.60;;;13.70;99.90;;;;;;5082973;28;20709;-60
2023/06/04 02:11:31;;;;;;;2.40;1.80;;;13.70;99.90;;;;;;5081115;28;20209;-60
2023/06/04 02:13:58;;;;;;;2.20;2.00;;;13.70;99.90;;;;;;5084068;28;20252;-59
2023/06/04 02:16:24;;;;;;;5.53;1.90;;;13.60;99.90;;;;;;5087626;28;20688;-60
2023/06/04 02:18:51;;;;;;;4.87;1.73;;;13.60;99.90;;;;;;5085698;28;20683;-60
2023/06/04 02:21:18;;;;;;;3.37;1.73;;;13.70;99.90;;;;;;5082677;28;20220;-59
2023/06/04 02:23:45;;;;;;;2.10;1.70;;;13.40;99.90;;;;;;5082205;28;20298;-59
2023/06/04 02:26:12;;;;;;;3.17;1.70;;;13.50;99.90;;;;;;5084078;28;20236;-59
2023/06/04 02:28:39;;;;;;;4.97;1.77;;;13.50;99.90;;;;;;5082002;28;20218;-60
2023/06/04 02:31:06;;;;;;;2.50;1.53;;;13.40;99.90;;;;;;5084199;28;20263;-60
2023/06/04 02:33:33;;;;;;;2.00;1.40;;;13.50;99.90;;;;;;5083031;28;20291;-59
2023/06/04 02:36:01;;;;;;;4.10;1.93;;;13.50;99.90;;;;;;5085481;28;20689;-59
2023/06/04 02:38:28;;;;;;;1.93;1.60;;;13.50;99.90;;;;;;5083053;28;20287;-61
2023/06/04 02:40:55;;;;;;;3.93;1.70;;;13.50;99.90;;;;;;5084371;28;20665;-59
2023/06/04 02:43:22;;;;;;;3.93;1.60;;;13.50;99.90;;;;;;5083283;28;20205;-59
2023/06/04 02:45:49;;;;;;;2.20;1.90;;;13.60;99.90;;;;;;5081462;28;20647;-60
2023/06/04 02:48:16;;;;;;;2.33;1.80;;;13.40;99.90;;;;;;5082489;28;20205;-60
2023/06/04 02:50:43;;;;;;;4.40;1.80;;;13.30;99.90;;;;;;5082174;28;20196;-57
2023/06/04 02:53:10;;;;;;;3.00;2.80;;;13.30;99.90;;;;;;5064976;28;20204;-57
2023/06/04 02:55:37;;;;;;;4.00;2.37;;;13.20;99.90;;;;;;5082017;28;20237;-57
2023/06/04 02:58:04;;;;;;;5.27;1.60;;;13.10;99.90;;;;;;5083117;28;20211;-57
2023/06/04 03:00:31;;;;;;;2.37;1.53;;;13.20;99.90;;;;;;5085934;28;20218;-57
2023/06/04 03:03:01;;;;;;;3.03;1.87;;;13.20;99.90;;;;;;5078978;28;21142;-57
2023/06/04 03:05:31;;;;;;;2.93;1.83;;;13.10;99.90;;;;;;5083779;28;20195;-57
2023/06/04 03:08:00;;;;;;;3.27;1.83;;;12.90;99.90;;;;;;5087227;28;21491;-57
2023/06/04 03:10:27;;;;;;;3.03;1.90;;;12.90;99.90;;;;;;5083977;28;20288;-57
2023/06/04 03:12:54;;;;;;;2.13;1.90;;;12.90;99.90;;;;;;5082073;28;20994;-57
2023/06/04 03:15:21;;;;;;;2.40;1.80;;;12.90;99.90;;;;;;5088324;28;20220;-57
2023/06/04 03:17:48;;;;;;;3.10;1.93;;;12.90;99.90;;;;;;5087523;28;20210;-60
2023/06/04 03:20:15;;;;;;;2.23;1.60;;;12.80;99.90;;;;;;5088462;28;20261;-57
2023/06/04 03:22:42;;;;;;;1.93;1.70;;;12.70;99.90;;;;;;5086025;28;20201;-59
2023/06/04 03:25:09;;;;;;;4.03;1.73;;;12.70;99.90;;;;;;5087701;28;20203;-59
2023/06/04 03:27:36;;;;;;;2.33;1.97;;;12.80;99.90;;;;;;5085968;28;20212;-59
2023/06/04 03:30:04;;;;;;;2.20;1.60;;;12.70;99.90;;;;;;5075804;28;20205;-58
2023/06/04 03:32:31;;;;;;;3.33;1.80;;;12.90;99.90;;;;;;5085187;28;20309;-58
2023/06/04 03:34:58;;;;;;;4.23;1.67;;;12.70;99.90;;;;;;5084974;28;20241;-58
2023/06/04 03:37:25;;;;;;;5.03;1.87;;;12.70;99.90;;;;;;5085541;28;20289;-57
2023/06/04 03:39:52;;;;;;;3.93;1.83;;;12.60;99.90;;;;;;5087416;28;20290;-57
2023/06/04 03:42:19;;;;;;;3.17;1.40;;;12.70;99.90;;;;;;5088071;28;20677;-58
2023/06/04 03:44:46;;;;;;;2.87;1.90;;;12.50;99.90;;;;;;5083668;28;20203;-57
2023/06/04 03:47:13;;;;;;;4.23;1.63;;;12.60;99.90;;;;;;5081098;28;20559;-58
2023/06/04 03:49:40;;;;;;;2.20;1.50;;;12.60;99.90;;;;;;5070003;28;20201;-57
2023/06/04 03:52:07;;;;;;;2.33;1.80;;;12.60;99.90;;;;;;5080826;28;20234;-57
2023/06/04 03:54:34;;;;;;;4.43;1.80;;;12.50;99.90;;;;;;5063904;28;20202;-58
2023/06/04 03:57:01;;;;;;;1.87;1.47;;;12.70;99.90;;;;;;5070129;28;20228;-57
2023/06/04 03:59:28;;;;;;;4.97;1.90;;;12.70;99.90;;;;;;5084696;28;20209;-57
2023/06/04 04:01:55;;;;;;;3.40;1.70;;;12.70;99.90;;;;;;5081469;28;20279;-59
2023/06/04 04:04:22;;;;;;;3.23;1.83;;;12.80;99.90;;;;;;5062729;28;20274;-57
2023/06/04 04:06:49;;;;;;;2.03;1.87;;;12.80;99.90;;;;;;5061430;28;20253;-58
2023/06/04 04:09:16;;;;;;;2.63;1.73;;;12.80;99.90;;;;;;5079758;28;20208;-61
2023/06/04 04:11:43;;;;;;;2.50;1.90;;;12.60;99.90;;;;;;5081296;28;20614;-59
2023/06/04 04:14:10;;;;;;;3.53;2.20;;;12.60;99.90;;;;;;5079978;28;20208;-58
2023/06/04 04:16:36;;;;;;;4.10;1.60;;;12.70;99.90;;;;;;5080931;28;20514;-57
2023/06/04 04:19:03;;;;;;;2.80;1.37;;;12.60;99.90;;;;;;5081482;28;20200;-57
2023/06/04 04:21:30;;;;;;;1.70;1.60;;;12.50;99.90;;;;;;5060341;28;20204;-58
2023/06/04 04:23:57;;;;;;;2.03;1.73;;;12.40;99.90;;;;;;5062662;28;20199;-58
2023/06/04 04:26:27;;;;;;;2.93;1.60;;;12.40;99.90;;;;;;5086720;28;20632;-58
2023/06/04 04:28:58;;;;;;;1.67;1.57;;;12.50;99.90;;;;;;5089001;28;20204;-57
2023/06/04 04:31:28;;;;;;;3.13;2.00;;;12.70;99.90;;;;;;5088572;28;20194;-57
2023/06/04 04:33:56;;;;;;;4.50;1.80;;;12.50;99.90;;;;;;5087621;28;20232;-57
2023/06/04 04:36:22;;;;;;;2.23;1.63;;;12.50;99.90;;;;;;5084013;28;20200;-57
2023/06/04 04:38:54;;;;;;;2.60;1.87;;;12.50;99.90;;;;;;5047042;28;20203;-58
2023/06/04 04:41:22;;;;;;;2.60;1.83;;;12.50;99.90;;;;;;5078219;28;20203;-58
2023/06/04 04:43:52;;;;;;;2.43;1.57;;;12.50;99.90;;;;;;5080636;28;20213;-57
2023/06/04 04:46:19;;;;;;;2.10;1.80;;;12.50;99.90;;;;;;5078568;28;20204;-57
2023/06/04 04:48:47;;;;;;;2.53;1.77;;;12.50;99.90;;;;;;5084885;28;20231;-57
2023/06/04 04:51:14;;;;;;;3.07;1.83;;;12.50;99.90;;;;;;5083642;28;20203;-63
2023/06/04 04:53:40;;;;;;;2.00;1.80;;;12.50;99.90;;;;;;5084419;28;20235;-58
2023/06/04 04:56:07;;;;;;;2.10;1.80;;;12.60;99.90;;;;;;5083172;28;20247;-57
2023/06/04 04:58:34;;;;;;;2.00;1.70;;;12.50;99.90;;;;;;5084546;28;20220;-58
2023/06/04 05:01:01;;;;;;;3.40;2.03;;;12.60;99.90;;;;;;5083999;28;20659;-57
2023/06/04 05:03:28;;;;;;;3.27;1.83;;;12.60;99.90;;;;;;5080827;28;20202;-57
2023/06/04 05:05:55;;;;;;;3.30;1.90;;;12.70;99.90;;;;;;5068463;28;20539;-57
2023/06/04 05:08:22;;;;;;;3.37;1.80;;;12.90;99.90;;;;;;5083268;28;20292;-57
2023/06/04 05:10:50;;;;;;;3.90;1.90;;;13.00;99.90;;;;;;5083113;28;20249;-57
2023/06/04 05:13:17;;;;;;;1.93;1.70;;;13.10;99.90;;;;;;5079224;28;20209;-57
2023/06/04 05:15:44;;;;;;;3.37;1.73;;;13.30;99.90;;;;;;5084247;28;20215;-57
2023/06/04 05:18:11;;;;;;;4.33;1.90;;;13.20;99.90;;;;;;5079221;28;20305;-60
2023/06/04 05:20:38;;;;;;;2.80;1.50;;;13.30;99.90;;;;;;5082654;28;20199;-58
2023/06/04 05:23:05;;;;;;;2.70;1.90;;;13.40;99.90;;;;;;5082867;28;20262;-57
2023/06/04 05:25:32;;;;;;;4.43;1.90;;;13.40;99.90;;;;;;5086313;28;20234;-57
2023/06/04 05:27:59;;;;;;;2.33;1.70;;;13.60;99.90;;;;;;5083840;28;20204;-57
2023/06/04 05:30:26;;;;;;;4.47;2.20;;;13.80;99.90;;;;;;5081484;28;20256;-58
2023/06/04 05:32:53;;;;;;;4.57;2.10;;;13.70;99.90;;;;;;5080807;28;20766;-58
2023/06/04 05:35:20;;;;;;;4.87;2.40;;;13.80;99.90;;;;;;5083854;28;20219;-57
2023/06/04 05:37:53;;;;;;;3.73;2.40;;;13.80;99.90;;;;;;5084916;28;20248;-58
2023/06/04 05:40:21;;;;;;;3.63;2.67;;;13.90;99.90;;;;;;5087269;28;20214;-60
2023/06/04 05:42:48;;;;;;;2.77;2.30;;;13.80;99.90;;;;;;5088157;28;20199;-58
2023/06/04 05:45:15;;;;;;;2.80;2.23;;;13.60;99.90;;;;;;5088062;28;20250;-57
2023/06/04 05:47:42;;;;;;;3.87;2.40;;;13.90;99.90;;;;;;5088643;28;20198;-57
2023/06/04 05:50:10;;;;;;;3.00;1.93;;;14.00;99.90;;;;;;5087949;28;20332;-58
2023/06/04 05:52:37;;;;;;;3.43;2.33;;;14.00;99.90;;;;;;5089930;28;20213;-57
2023/06/04 05:55:07;;;;;;;3.90;2.13;;;14.20;99.90;;;;;;5090568;28;20218;-57
2023/06/04 05:57:34;;;;;;;2.50;2.13;;;14.30;99.90;;;;;;5090339;28;20244;-58
2023/06/04 06:00:02;;;;;;;2.70;2.00;;;14.40;99.90;;;;;;5090991;28;20270;-58
2023/06/04 06:02:30;;;;;;;3.50;1.80;;;14.30;99.90;;;;;;5079646;28;20201;-57
2023/06/04 06:04:57;;;;;;;2.80;2.00;;;14.60;99.90;;;;;;5086944;28;20280;-58
2023/06/04 06:07:24;;;;;;;4.10;2.00;;;14.40;99.90;;;;;;5086736;28;20274;-57
2023/06/04 06:09:51;;;;;;;3.83;2.37;;;14.20;99.90;;;;;;5089366;28;20280;-57
2023/06/04 06:12:18;;;;;;;2.03;1.60;;;14.30;99.90;;;;;;5087199;28;20937;-57
2023/06/04 06:14:45;;;;;;;3.37;2.30;;;14.50;99.90;;;;;;5062082;28;20273;-57
2023/06/04 06:17:12;;;;;;;6.47;2.53;;;14.70;99.90;;;;;;5085872;28;20211;-57
2023/06/04 06:19:39;;;;;;;3.97;2.30;;;14.70;99.90;;;;;;5071441;28;20559;-57
2023/06/04 06:22:06;;;;;;;9.40;2.27;;;14.60;99.90;;;;;;5090161;28;20197;-57
2023/06/04 06:24:33;;;;;;;3.10;2.10;;;14.60;99.90;;;;;;5089825;28;20369;-57
2023/06/04 06:27:00;;;;;;;3.53;2.10;;;14.70;99.90;;;;;;5090097;28;20198;-57
2023/06/04 06:29:27;;;;;;;3.80;2.13;;;14.80;99.90;;;;;;5090484;28;20205;-59
2023/06/04 06:31:54;;;;;;;4.60;2.27;;;15.10;99.90;;;;;;5089717;28;20687;-57
2023/06/04 06:34:21;;;;;;;3.50;2.00;;;15.20;99.90;;;;;;5064626;28;20679;-58
2023/06/04 06:36:49;;;;;;;2.43;1.90;;;15.30;99.90;;;;;;5085830;28;20589;-57
2023/06/04 06:39:16;;;;;;;3.77;2.30;;;15.30;99.90;;;;;;5088405;28;20199;-57
2023/06/04 06:41:43;;;;;;;3.33;1.77;;;15.50;99.90;;;;;;5077004;28;20724;-58
2023/06/04 06:44:10;;;;;;;4.63;2.47;;;15.70;99.90;;;;;;5066689;28;20562;-58
2023/06/04 06:46:37;;;;;;;4.57;2.00;;;15.90;99.90;;;;;;5089911;28;20199;-57
2023/06/04 06:49:04;;;;;;;3.70;2.70;;;15.80;99.90;;;;;;5088076;28;20198;-58
2023/06/04 06:51:31;;;;;;;4.83;2.40;;;16.00;99.90;;;;;;5085744;28;20206;-58
2023/06/04 06:53:58;;;;;;;3.03;2.40;;;16.10;99.90;;;;;;5088510;28;20203;-57
2023/06/04 06:56:25;;;;;;;2.83;2.20;;;16.00;99.90;;;;;;5090184;28;20646;-58
2023/06/04 06:58:52;;;;;;;3.20;2.70;;;16.20;99.90;;;;;;5090919;28;20213;-58
2023/06/04 07:01:20;;;;;;;2.87;1.93;;;16.30;99.90;;;;;;5071415;28;20205;-58
2023/06/04 07:03:47;;;;;;;2.57;2.20;;;16.40;99.90;;;;;;5085901;28;20932;-58
2023/06/04 07:06:15;;;;;;;3.27;2.07;;;16.60;99.90;;;;;;5087412;28;20301;-58
2023/06/04 07:08:42;;;;;;;6.72;2.62;;;16.70;99.90;;;;;;4733191;28;10000821;-59
2023/06/04 07:11:12;;;;;;;2.53;1.90;;;17.00;99.90;;;;;;5069807;28;20198;-58
2023/06/04 07:13:39;;;;;;;5.77;2.20;;;17.30;99.90;;;;;;5074869;28;20201;-58
2023/06/04 07:16:06;;;;;;;3.47;2.60;;;17.30;99.90;;;;;;5086027;28;20207;-58
2023/06/04 07:18:34;;;;;;;3.83;2.33;;;17.30;99.90;;;;;;5082553;28;20214;-58
2023/06/04 07:21:01;;;;;;;5.27;2.53;;;17.50;99.90;;;;;;5082754;28;20593;-57
2023/06/04 07:23:28;;;;;;;5.17;2.40;;;17.90;99.90;;;;;;5074972;28;20663;-58
2023/06/04 07:25:55;;;;;;;4.50;2.73;;;18.00;99.90;;;;;;5079724;28;22023;-58
2023/06/04 07:28:22;;;;;;;4.77;2.27;;;17.90;99.90;;;;;;5078839;28;20252;-57
2023/06/04 07:30:50;;;;;;;2.27;1.93;;;18.10;99.90;;;;;;5073662;28;20300;-58
2023/06/04 07:33:17;;;;;;;2.77;2.37;;;18.30;99.90;;;;;;5080816;28;20598;-58
2023/06/04 07:35:44;;;;;;;2.97;2.10;;;18.30;99.90;;;;;;5081007;28;20206;-61
2023/06/04 07:38:11;;;;;;;3.73;2.20;;;17.90;99.90;;;;;;5059125;28;20717;-58
2023/06/04 07:40:38;;;;;;;3.93;2.27;;;18.00;99.90;;;;;;5079262;28;20224;-58
2023/06/04 07:43:05;;;;;;;2.60;2.20;;;18.10;99.90;;;;;;5077748;28;20205;-59
2023/06/04 07:45:32;;;;;;;4.63;2.27;;;18.60;99.90;;;;;;5078287;28;20286;-58
2023/06/04 07:48:02;;;;;;;3.07;2.07;;;18.40;99.90;;;;;;5081189;28;20226;-59
2023/06/04 07:50:29;;;;;;;5.47;2.10;;;18.30;99.90;;;;;;5078914;28;20225;-58
2023/06/04 07:52:58;;;;;;;3.83;2.50;;;18.50;99.90;;;;;;5076238;28;20215;-58
2023/06/04 07:55:26;;;;;;;4.73;2.30;;;19.00;99.90;;;;;;5078500;28;20202;-58
2023/06/04 07:57:52;;;;;;;4.63;2.67;;;18.50;99.90;;;;;;5082945;28;20307;-62
2023/06/04 08:00:19;;;;;;;3.03;2.30;;;18.60;99.90;;;;;;5076090;28;20209;-59
2023/06/04 08:02:48;;;;;;;5.90;2.60;;;18.90;99.90;;;;;;5053715;28;20211;-58
2023/06/04 08:05:15;;;;;;;3.77;2.10;;;19.30;99.90;;;;;;5077129;28;20201;-59
2023/06/04 08:07:43;;;;;;;4.30;2.43;;;19.40;99.90;;;;;;5074312;28;20826;-59
2023/06/04 08:10:10;;;;;;;3.23;1.83;;;19.60;99.90;;;;;;5083586;28;20202;-58
2023/06/04 08:12:37;;;;;;;2.03;1.83;;;19.90;99.90;;;;;;5073660;28;20213;-58
2023/06/04 08:15:05;;;;;;;3.27;2.10;;;19.90;99.90;;;;;;5086912;28;20213;-58
2023/06/04 08:17:32;;;;;;;3.83;2.00;;;19.80;99.90;;;;;;5067514;28;20559;-59
2023/06/04 08:19:59;;;;;;;2.93;1.80;;;20.10;99.90;;;;;;5085557;28;20207;-58
2023/06/04 08:22:27;;;;;;;4.00;2.13;;;19.70;99.90;;;;;;5084623;28;20199;-58
2023/06/04 08:24:55;;;;;;;4.03;1.73;;;20.20;99.90;;;;;;5083826;28;20201;-58
2023/06/04 08:27:22;;;;;;;2.87;1.67;;;20.70;99.90;;;;;;5086259;28;20561;-59
2023/06/04 08:29:48;;;;;;;3.13;2.00;;;21.30;99.90;;;;;;5088345;28;20195;-59
2023/06/04 08:32:15;;;;;;;4.67;1.80;;;21.00;99.90;;;;;;5089387;28;20195;-58
2023/06/04 08:34:42;;;;;;;2.70;2.00;;;21.10;99.90;;;;;;5087984;28;20232;-58
2023/06/04 08:37:10;;;;;;;3.57;2.40;;;21.00;99.90;;;;;;5085298;28;20209;-59
2023/06/04 08:39:36;;;;;;;3.30;1.47;;;21.40;99.90;;;;;;5088034;28;20568;-59
2023/06/04 08:42:08;;;;;;;2.87;2.13;;;21.50;99.90;;;;;;5087765;28;20240;-59
2023/06/04 08:44:35;;;;;;;2.43;1.70;;;21.40;99.90;;;;;;5087079;28;20195;-58
2023/06/04 08:47:07;;;;;;;3.23;1.90;;;21.20;99.90;;;;;;5065793;28;20646;-59
2023/06/04 08:49:36;;;;;;;4.17;2.10;;;22.10;99.90;;;;;;5089373;28;20202;-58
2023/06/04 08:52:03;;;;;;;3.27;1.87;;;21.80;99.90;;;;;;5086421;28;20210;-58
2023/06/04 08:54:31;;;;;;;3.47;1.57;;;22.30;99.90;;;;;;5083315;28;20241;-58
2023/06/04 08:56:58;;;;;;;2.30;1.93;;;22.40;99.90;;;;;;5083629;28;20213;-59
2023/06/04 08:59:25;;;;;;;3.03;1.43;;;21.90;99.90;;;;;;5087149;28;20931;-58
2023/06/04 09:01:54;;;;;;;2.37;1.60;;;22.40;99.90;;;;;;5083896;28;20217;-58
2023/06/04 09:04:21;;;;;;;3.33;1.50;;;21.80;99.90;;;;;;5085260;28;20675;-58
2023/06/04 09:06:49;;;;;;;2.50;1.37;;;22.30;99.90;;;;;;5086057;28;20207;-58
2023/06/04 09:09:17;;;;;;;2.73;1.50;;;22.00;99.90;;;;;;5086510;28;20661;-58
2023/06/04 09:11:52;;;;;;;2.53;1.73;;;22.10;99.90;;;;;;5081678;28;20237;-58
2023/06/04 09:14:20;;;;;;;3.20;1.73;;;22.10;99.90;;;;;;5082534;28;20206;-58
2023/06/04 09:16:48;;;;;;;3.27;1.83;;;21.50;99.90;;;;;;5065746;28;20209;-58
2023/06/04 09:19:16;;;;;;;2.63;1.40;;;21.80;99.90;;;;;;5085648;28;20213;-58
2023/06/04 09:22:13;;;;;;;4.67;1.60;;;21.90;99.90;;;;;;5085335;28;20342;-58
2023/06/04 09:24:42;;;;;;;5.37;1.80;;;22.80;99.90;;;;;;5071386;28;21747;-58
2023/06/04 09:27:13;;;;;;;6.13;1.77;;;23.20;99.90;;;;;;5082971;28;20199;-58
2023/06/04 09:29:50;;;;;;;1.40;1.30;;;22.40;99.90;;;;;;5060174;28;20613;-58
2023/06/04 09:32:26;;;;;;;3.80;1.47;;;22.10;99.90;;;;;;5084427;28;20226;-58
2023/06/04 09:34:56;;;;;;;1.53;1.20;;;21.90;99.90;;;;;;5084056;28;20238;-58
2023/06/04 09:37:23;;;;;;;1.87;1.10;;;22.10;99.90;;;;;;5084076;28;20203;-58
2023/06/04 09:39:56;;;;;;;1.53;1.10;;;22.50;99.90;;;;;;5083638;28;20315;-58
2023/06/04 09:42:23;;;;;;;1.40;0.90;;;22.10;99.90;;;;;;5085017;28;20230;-58
2023/06/04 09:44:50;;;;;;;1.50;1.00;;;22.30;99.90;;;;;;5084246;28;20198;-59
2023/06/04 09:47:20;;;;;;;1.10;1.00;;;22.30;99.90;;;;;;5084605;28;20747;-58
2023/06/04 09:49:50;;;;;;;2.10;1.00;;;22.50;99.90;;;;;;5084314;28;20198;-58
2023/06/04 09:52:17;;;;;;;2.13;1.10;;;22.70;99.90;;;;;;5083047;28;20260;-59
2023/06/04 09:54:44;;;;;;;2.37;1.00;;;22.70;99.90;;;;;;5081560;28;20206;-59
2023/06/04 09:57:19;;;;;;;2.37;1.17;;;22.30;99.90;;;;;;5084936;28;20211;-58
2023/06/04 09:59:49;;;;;;;2.03;1.30;;;23.20;99.90;;;;;;5056870;28;20282;-58
2023/06/04 10:02:20;;;;;;;1.73;0.90;;;22.20;99.90;;;;;;5062810;28;20199;-58
2023/06/04 10:04:57;;;;;;;1.60;0.90;;;23.10;99.90;;;;;;5068891;28;20193;-58
2023/06/04 10:07:25;;;;;;;2.57;0.90;;;22.90;99.90;;;;;;5070379;28;20651;-58
2023/06/04 10:09:52;;;;;;;2.73;0.80;;;23.00;99.90;;;;;;5083502;28;20256;-59
2023/06/04 10:12:34;;;;;;;1.40;0.90;;;23.10;99.90;;;;;;5069537;28;20216;-58
2023/06/04 10:15:12;;;;;;;1.10;0.80;;;23.10;99.90;;;;;;5085305;28;20676;-58
2023/06/04 10:17:40;;;;;;;1.87;0.73;;;22.90;99.90;;;;;;5082531;28;20657;-58
2023/06/04 10:20:08;;;;;;;2.97;0.67;;;23.00;99.90;;;;;;5086994;28;20579;-59
2023/06/04 10:22:36;;;;;;;4.47;0.97;;;23.10;99.90;;;;;;5084947;28;20199;-63
2023/06/04 10:25:04;;;;;;;2.93;0.80;;;22.90;99.90;;;;;;5090855;28;20205;-59
2023/06/04 10:27:32;;;;;;;1.13;0.90;;;22.80;99.90;;;;;;5072236;28;20289;-58
2023/06/04 10:29:59;;;;;;;0.77;0.60;;;22.90;99.90;;;;;;5089559;28;20240;-58
2023/06/04 10:32:30;;;;;;;2.03;0.90;;;23.20;99.90;;;;;;5087364;28;20260;-59
2023/06/04 10:35:04;;;;;;;2.50;0.77;;;23.30;99.90;;;;;;5086787;28;20266;-61
2023/06/04 10:37:31;;;;;;;1.30;0.97;;;23.20;99.90;;;;;;5090971;28;20206;-58
2023/06/04 10:39:58;;;;;;;1.93;1.00;;;23.20;99.90;;;;;;5079402;28;20815;-58
2023/06/04 10:42:25;;;;;;;1.10;1.00;;;23.40;99.90;;;;;;5077817;28;20199;-58
2023/06/04 10:44:54;;;;;;;1.67;0.93;;;23.30;99.90;;;;;;5063412;28;20198;-58
2023/06/04 10:47:33;;;;;;;1.17;0.80;;;23.40;99.90;;;;;;5086497;28;20617;-58
2023/06/04 10:50:10;;;;;;;2.17;1.20;;;23.20;99.90;;;;;;5079938;28;20259;-58
2023/06/04 10:52:39;;;;;;;1.13;0.90;;;23.40;99.90;;;;;;5079731;28;20206;-58
2023/06/04 10:55:08;;;;;;;1.20;1.00;;;23.50;99.90;;;;;;5059007;28;20246;-58
2023/06/04 10:57:36;;;;;;;3.50;1.10;;;23.90;99.90;;;;;;5058270;28;20286;-59
2023/06/04 11:00:09;;;;;;;1.10;1.00;;;24.30;99.90;;;;;;5077595;28;20226;-58
2023/06/04 11:02:38;;;;;;;1.63;1.10;;;24.10;99.90;;;;;;5076909;28;20201;-59
2023/06/04 11:05:06;;;;;;;1.50;1.37;;;24.20;99.90;;;;;;5037701;28;20199;-59
2023/06/04 11:07:44;;;;;;;1.77;1.13;;;24.00;99.90;;;;;;5039875;28;20198;-58
2023/06/04 11:10:12;;;;;;;0.90;0.70;;;24.20;99.90;;;;;;5075975;28;20209;-62
2023/06/04 11:12:47;;;;;;;1.30;0.90;;;24.50;99.90;;;;;;5069089;28;20251;-58
2023/06/04 11:15:16;;;;;;;1.60;0.73;;;24.70;99.90;;;;;;5060830;28;20218;-59
2023/06/04 11:17:59;;;;;;;1.40;1.10;;;24.30;99.90;;;;;;5078942;28;20206;-58
2023/06/04 11:20:26;;;;;;;1.40;0.60;;;24.40;99.90;;;;;;5062724;28;20202;-58
2023/06/04 11:22:59;;;;;;;1.07;0.87;;;24.30;99.90;;;;;;5066230;28;20218;-58
2023/06/04 11:25:28;;;;;;;1.20;0.87;;;24.20;99.90;;;;;;5078345;28;20209;-59
2023/06/04 11:27:56;;;;;;;1.37;1.00;;;24.20;99.90;;;;;;5079821;28;20230;-59
2023/06/04 11:30:24;;;;;;;1.40;1.00;;;24.50;99.90;;;;;;5075462;28;20206;-58
2023/06/04 11:33:03;;;;;;;3.07;1.00;;;24.30;99.90;;;;;;5079614;28;20393;-58
2023/06/04 11:35:31;;;;;;;1.83;1.30;;;24.50;99.90;;;;;;5080170;28;20341;-59
2023/06/04 11:37:58;;;;;;;1.00;0.97;;;25.10;99.90;;;;;;5065383;28;20210;-59
2023/06/04 11:40:26;;;;;;;1.50;0.90;;;25.60;99.90;;;;;;5065892;28;20222;-58
2023/06/04 11:42:53;;;;;;;2.00;1.10;;;25.50;99.90;;;;;;5063743;28;20198;-58
2023/06/04 11:45:22;;;;;;;1.10;1.00;;;25.20;99.90;;;;;;5056049;28;20595;-58
2023/06/04 11:47:51;;;;;;;1.57;1.30;;;25.00;99.90;;;;;;5057317;28;20202;-60
2023/06/04 11:50:19;;;;;;;1.20;1.07;;;25.50;99.90;;;;;;5060291;28;20218;-58
2023/06/04 11:52:48;;;;;;;1.33;1.00;;;25.20;99.90;;;;;;5062171;28;20260;-58
2023/06/04 11:55:22;;;;;;;2.00;1.08;;;24.80;99.90;;;;;;5064007;28;20812;-58
2023/06/04 11:57:50;;;;;;;1.27;1.00;;;25.00;99.90;;;;;;5062634;28;20195;-58
2023/06/04 12:00:19;;;;;;;1.20;0.70;;;26.20;99.90;;;;;;5075358;28;20676;-58
2023/06/04 12:02:54;;;;;;;1.50;1.10;;;26.80;99.90;;;;;;5085277;28;20534;-58
2023/06/04 12:05:30;;;;;;;1.07;0.90;;;26.60;99.90;;;;;;5072717;28;20256;-58
2023/06/04 12:08:09;;;;;;;0.90;0.80;;;27.10;99.90;;;;;;5084263;28;20236;-58
2023/06/04 12:10:40;;;;;;;2.77;1.00;;;26.00;99.90;;;;;;5067353;28;20206;-58
2023/06/04 12:13:08;;;;;;;2.58;1.35;;;27.00;99.90;;;;;;5065752;28;20569;-58
2023/06/04 12:15:35;;;;;;;2.22;0.90;;;28.30;99.90;;;;;;5062061;28;20294;-58
2023/06/04 12:18:05;;;;;;;2.05;1.45;;;27.90;99.90;;;;;;5069103;28;20215;-58
2023/06/04 12:20:37;;;;;;;5.28;1.30;;;27.50;99.90;;;;;;5072441;28;20217;-60
2023/06/04 12:23:05;;;;;;;1.23;0.98;;;28.00;99.90;;;;;;5052043;28;20207;-58
2023/06/04 12:25:37;;;;;;;1.90;1.13;;;28.70;99.90;;;;;;5066259;28;20241;-60
2023/06/04 12:28:05;;;;;;;2.88;1.15;;;28.90;99.90;;;;;;5071398;28;20432;-59
2023/06/04 12:30:41;;;;;;;2.85;0.90;;;27.80;99.90;;;;;;5073264;28;20296;-58
2023/06/04 12:33:10;;;;;;;2.00;1.30;;;28.40;99.90;;;;;;5073751;28;20709;-58
2023/06/04 12:35:37;;;;;;;2.05;1.10;;;28.40;99.90;;;;;;5073000;28;20206;-58
2023/06/04 12:38:05;;;;;;;3.65;1.23;;;28.40;99.90;;;;;;5076158;28;20203;-58
2023/06/04 12:40:32;;;;;;;2.15;0.90;;;28.20;99.90;;;;;;5076824;28;20650;-58
2023/06/04 12:42:59;;;;;;;2.20;1.20;;;27.70;99.90;;;;;;5072519;28;20213;-58
2023/06/04 12:45:26;;;;;;;1.50;1.20;;;28.20;99.90;;;;;;5075856;28;20202;-59
2023/06/04 12:47:53;;;;;;;1.67;1.23;;;27.70;99.90;;;;;;5052589;28;20203;-58
2023/06/04 12:50:20;;;;;;;3.60;1.10;;;28.30;99.90;;;;;;5072991;28;20327;-58
2023/06/04 12:52:48;;;;;;;1.57;1.10;;;28.10;99.90;;;;;;5071919;28;20210;-59